createdAt,value
2018-02-05T00:00:18.852Z,68.28
2018-02-05T00:02:45.124Z,68.12
2018-02-05T00:05:11.384Z,68.08
2018-02-05T00:07:38.459Z,67.21
2018-02-05T00:10:04.726Z,67.03
2018-02-05T00:12:31.015Z,66.75
2018-02-05T00:14:57.302Z,66.76
2018-02-05T00:17:24.319Z,67.41
2018-02-05T00:19:50.610Z,67.61
2018-02-05T00:22:17.624Z,67.29
2018-02-05T00:24:43.886Z,67.30
2018-02-05T00:27:10.889Z,67.06
2018-02-05T00:29:37.163Z,66.43
2018-02-05T00:32:04.201Z,66.47
2018-02-05T00:34:31.216Z,66.84
2018-02-05T00:36:57.497Z,67.54
2018-02-05T00:39:23.803Z,67.65
2018-02-05T00:41:50.849Z,67.51
2018-02-05T00:44:17.135Z,67.51
2018-02-05T00:46:43.429Z,66.83
2018-02-05T00:49:09.663Z,67.46
2018-02-05T00:51:35.918Z,67.38
2018-02-05T00:54:02.223Z,66.44
2018-02-05T00:56:28.513Z,66.16
2018-02-05T00:58:55.600Z,66.47
2018-02-05T01:01:21.943Z,66.14
2018-02-05T01:03:48.198Z,65.09
2018-02-05T01:06:14.508Z,64.88
2018-02-05T01:08:40.790Z,64.60
2018-02-05T01:11:07.064Z,65.01
2018-02-05T01:13:33.342Z,64.78
2018-02-05T01:15:59.647Z,65.16
2018-02-05T01:18:25.907Z,66.04
2018-02-05T01:20:52.208Z,66.17
2018-02-05T01:23:18.506Z,66.02
2018-02-05T01:25:44.736Z,66.20
2018-02-05T01:28:11.027Z,66.13
2018-02-05T01:30:37.295Z,65.48
2018-02-05T01:33:03.591Z,65.35
2018-02-05T01:35:30.601Z,65.09
2018-02-05T01:37:56.917Z,65.34
2018-02-05T01:40:23.175Z,65.88
2018-02-05T01:42:49.477Z,66.89
2018-02-05T01:45:15.710Z,66.69
2018-02-05T01:47:41.947Z,67.30
2018-02-05T01:50:08.227Z,67.23
2018-02-05T01:52:35.228Z,67.13
2018-02-05T01:55:01.492Z,67.04
2018-02-05T01:57:27.760Z,67.05
2018-02-05T01:59:54.010Z,66.46
2018-02-05T02:02:20.345Z,66.13
2018-02-05T02:04:46.622Z,65.90
2018-02-05T02:07:12.904Z,65.62
2018-02-05T02:09:39.175Z,65.03
2018-02-05T02:12:05.437Z,64.36
2018-02-05T02:14:31.710Z,64.18
2018-02-05T02:16:57.958Z,64.43
2018-02-05T02:19:24.262Z,63.71
2018-02-05T02:21:50.562Z,63.80
2018-02-05T02:24:16.835Z,64.50
2018-02-05T02:26:43.108Z,63.92
2018-02-05T02:29:10.136Z,64.14
2018-02-05T02:31:36.449Z,64.13
2018-02-05T02:34:02.735Z,64.49
2018-02-05T02:36:29.055Z,65.12
2018-02-05T02:38:55.294Z,64.95
2018-02-05T02:41:21.531Z,64.99
2018-02-05T02:43:47.800Z,66.53
2018-02-05T02:46:14.069Z,66.43
2018-02-05T02:48:41.089Z,66.37
2018-02-05T02:51:07.328Z,66.66
2018-02-05T02:53:34.307Z,66.53
2018-02-05T02:56:00.655Z,66.29
2018-02-05T02:58:26.934Z,67.25
2018-02-05T03:00:53.974Z,67.54
2018-02-05T03:03:20.255Z,67.21
2018-02-05T03:05:46.512Z,67.09
2018-02-05T03:08:12.796Z,67.02
2018-02-05T03:10:39.089Z,67.81
2018-02-05T03:13:05.346Z,67.63
2018-02-05T03:15:32.384Z,67.39
2018-02-05T03:17:59.361Z,67.07
2018-02-05T03:20:25.610Z,67.24
2018-02-05T03:22:51.882Z,67.17
2018-02-05T03:25:18.143Z,66.49
2018-02-05T03:27:44.400Z,66.66
2018-02-05T03:30:10.636Z,67.59
2018-02-05T03:32:36.899Z,68.43
2018-02-05T03:35:03.183Z,68.53
2018-02-05T03:37:29.485Z,68.16
2018-02-05T03:39:55.723Z,67.33
2018-02-05T03:42:22.003Z,67.27
2018-02-05T03:44:48.249Z,67.45
2018-02-05T03:47:15.235Z,68.03
2018-02-05T03:49:41.535Z,67.91
2018-02-05T03:52:08.563Z,67.12
2018-02-05T03:54:34.830Z,66.45
2018-02-05T03:57:01.102Z,66.15
2018-02-05T03:59:27.355Z,65.48
2018-02-05T04:01:53.646Z,65.71
2018-02-05T04:04:20.148Z,65.71
2018-02-05T04:06:53.491Z,65.63
2018-02-05T04:09:19.734Z,66.41
2018-02-05T04:11:46.781Z,65.38
2018-02-05T04:14:13.031Z,65.73
2018-02-05T04:16:40.291Z,65.94
2018-02-05T04:19:07.316Z,65.63
2018-02-05T04:21:33.631Z,66.07
2018-02-05T04:23:59.999Z,66.31
2018-02-05T04:26:26.984Z,65.38
2018-02-05T04:28:53.273Z,65.69
2018-02-05T04:31:20.341Z,66.49
2018-02-05T04:33:47.351Z,66.81
2018-02-05T04:36:13.700Z,67.20
2018-02-05T04:38:40.765Z,69.30
2018-02-05T04:41:07.806Z,70.02
2018-02-05T04:43:36.389Z,70.25
2018-02-05T04:46:02.777Z,70.66
2018-02-05T04:48:29.057Z,70.64
2018-02-05T04:50:55.329Z,70.33
2018-02-05T04:53:21.595Z,70.82
2018-02-05T04:55:48.626Z,71.23
2018-02-05T04:58:15.788Z,72.03
2018-02-05T05:00:42.032Z,72.96
2018-02-05T05:03:09.064Z,73.05
2018-02-05T05:05:35.364Z,72.62
2018-02-05T05:08:01.668Z,72.74
2018-02-05T05:10:27.926Z,74.03
2018-02-05T05:12:54.206Z,74.32
2018-02-05T05:15:21.245Z,74.59
2018-02-05T05:17:47.511Z,74.62
2018-02-05T05:20:13.808Z,74.25
2018-02-05T05:22:40.849Z,73.24
2018-02-05T05:25:07.123Z,73.06
2018-02-05T05:27:33.402Z,73.30
2018-02-05T05:29:59.679Z,73.01
2018-02-05T05:32:25.938Z,72.66
2018-02-05T05:34:52.267Z,72.13
2018-02-05T05:37:19.535Z,71.38
2018-02-05T05:39:45.876Z,71.04
2018-02-05T05:42:12.180Z,71.74
2018-02-05T05:44:38.454Z,71.47
2018-02-05T05:47:05.463Z,71.40
2018-02-05T05:49:31.693Z,71.23
2018-02-05T05:51:58.000Z,70.71
2018-02-05T05:54:24.377Z,70.50
2018-02-05T05:56:51.406Z,70.22
2018-02-05T05:59:17.698Z,69.87
2018-02-05T06:01:43.968Z,69.34
2018-02-05T06:04:10.242Z,69.49
2018-02-05T06:06:37.257Z,69.66
2018-02-05T06:09:03.586Z,69.50
2018-02-05T06:11:29.850Z,70.12
2018-02-05T06:13:56.838Z,70.99
2018-02-05T06:16:23.155Z,70.66
2018-02-05T06:18:49.465Z,70.57
2018-02-05T06:21:15.707Z,70.70
2018-02-05T06:23:41.985Z,70.67
2018-02-05T06:26:08.277Z,70.05
2018-02-05T06:28:34.557Z,70.02
2018-02-05T06:31:00.813Z,70.00
2018-02-05T06:33:27.351Z,70.04
2018-02-05T06:35:54.007Z,70.09
2018-02-05T06:38:19.913Z,69.69
2018-02-05T06:40:46.199Z,69.46
2018-02-05T06:43:13.936Z,69.38
2018-02-05T06:45:40.223Z,69.36
2018-02-05T06:48:07.220Z,69.03
2018-02-05T06:54:05.382Z,68.23
2018-02-05T06:56:31.642Z,68.69
2018-02-05T06:58:58.015Z,68.29
2018-02-05T07:01:25.036Z,67.57
2018-02-05T07:03:51.306Z,67.78
2018-02-05T07:06:18.290Z,67.82
2018-02-05T07:08:44.604Z,67.91
2018-02-05T07:11:10.868Z,67.22
2018-02-05T07:13:37.104Z,67.31
2018-02-05T07:16:03.407Z,67.00
2018-02-05T07:18:29.704Z,67.12
2018-02-05T07:20:56.717Z,67.25
2018-02-05T07:23:23.013Z,66.49
2018-02-05T07:25:49.247Z,66.53
2018-02-05T07:28:15.567Z,66.37
2018-02-05T07:30:41.831Z,66.63
2018-02-05T07:33:08.073Z,66.97
2018-02-05T07:35:34.343Z,66.65
2018-02-05T07:38:00.608Z,66.47
2018-02-05T07:40:26.915Z,66.94
2018-02-05T07:42:53.166Z,67.31
2018-02-05T07:45:19.399Z,67.01
2018-02-05T07:47:45.825Z,66.93
2018-02-05T07:50:12.071Z,66.94
2018-02-05T07:52:38.305Z,67.74
2018-02-05T07:55:04.584Z,67.58
2018-02-05T07:57:30.840Z,67.66
2018-02-05T07:59:57.504Z,66.85
2018-02-05T08:02:23.906Z,66.47
2018-02-05T08:04:50.306Z,66.43
2018-02-05T08:07:17.520Z,66.01
2018-02-05T08:09:43.910Z,65.89
2018-02-05T08:12:10.196Z,65.98
2018-02-05T08:14:36.956Z,65.74
2018-02-05T08:17:03.197Z,65.05
2018-02-05T08:19:29.489Z,64.91
2018-02-05T08:21:55.794Z,65.06
2018-02-05T08:24:22.087Z,64.86
2018-02-05T08:26:49.107Z,64.72
2018-02-05T08:29:16.929Z,64.32
2018-02-05T08:31:43.188Z,63.35
2018-02-05T08:34:09.463Z,62.29
2018-02-05T08:36:35.698Z,61.71
2018-02-05T08:39:01.948Z,61.36
2018-02-05T08:41:28.187Z,60.91
2018-02-05T08:43:54.470Z,61.99
2018-02-05T08:46:20.713Z,62.86
2018-02-05T08:48:46.994Z,63.34
2018-02-05T08:51:13.266Z,63.70
2018-02-05T08:53:40.267Z,63.74
2018-02-05T08:56:06.548Z,64.19
2018-02-05T08:58:32.840Z,64.20
2018-02-05T09:00:59.088Z,65.02
2018-02-05T09:03:26.084Z,65.13
2018-02-05T09:05:52.352Z,64.93
2018-02-05T09:08:18.650Z,64.93
2018-02-05T09:10:44.977Z,64.18
2018-02-05T09:13:11.253Z,63.01
2018-02-05T09:15:38.335Z,62.81
2018-02-05T09:18:04.595Z,62.07
2018-02-05T09:20:30.883Z,60.67
2018-02-05T09:22:57.136Z,59.97
2018-02-05T09:25:23.437Z,59.97
2018-02-05T09:27:50.501Z,59.82
2018-02-05T09:30:16.767Z,58.05
2018-02-05T09:32:43.059Z,56.35
2018-02-05T09:35:09.351Z,54.52
2018-02-05T09:37:35.651Z,54.54
2018-02-05T09:40:01.948Z,54.75
2018-02-05T09:45:27.895Z,57.32
2018-02-05T09:47:54.167Z,57.50
2018-02-05T09:50:20.477Z,57.48
2018-02-05T09:52:46.704Z,57.14
2018-02-05T09:55:13.315Z,56.24
2018-02-05T09:57:39.569Z,54.83
2018-02-05T10:00:05.857Z,53.80
2018-02-05T10:02:32.873Z,53.67
2018-02-05T10:04:59.207Z,53.93
2018-02-05T10:07:25.465Z,54.85
2018-02-05T10:09:52.451Z,54.74
2018-02-05T10:12:18.785Z,53.75
2018-02-05T10:14:45.100Z,53.32
2018-02-05T10:17:11.346Z,53.87
2018-02-05T10:19:37.595Z,54.27
2018-02-05T10:22:03.855Z,53.45
2018-02-05T10:24:30.874Z,53.33
2018-02-05T10:26:57.150Z,51.60
2018-02-05T10:29:24.212Z,51.71
2018-02-05T10:31:51.368Z,51.43
2018-02-05T10:34:17.706Z,51.70
2018-02-05T10:36:43.996Z,50.93
2018-02-05T10:39:10.984Z,51.42
2018-02-05T10:41:37.279Z,51.15
2018-02-05T10:44:04.333Z,50.62
2018-02-05T10:46:31.381Z,49.48
2018-02-05T10:48:57.731Z,51.08
2018-02-05T10:51:24.070Z,50.15
2018-02-05T10:53:50.379Z,49.63
2018-02-05T10:56:16.672Z,49.90
2018-02-05T10:58:42.965Z,50.19
2018-02-05T11:01:09.284Z,50.03
2018-02-05T11:03:36.516Z,49.69
2018-02-05T11:06:03.586Z,48.78
2018-02-05T11:08:29.912Z,47.95
2018-02-05T11:10:56.232Z,47.34
2018-02-05T11:13:23.343Z,46.57
2018-02-05T11:15:49.798Z,46.43
2018-02-05T11:18:16.843Z,46.83
2018-02-05T11:20:43.097Z,45.33
2018-02-05T11:23:09.419Z,45.29
2018-02-05T11:25:37.171Z,45.96
2018-02-05T11:28:04.159Z,47.52
2018-02-05T11:30:30.459Z,50.64
2018-02-05T11:32:57.493Z,53.01
2018-02-05T11:35:23.881Z,54.39
2018-02-05T11:37:50.161Z,54.35
2018-02-05T11:40:17.208Z,54.83
2018-02-05T11:42:44.279Z,56.34
2018-02-05T11:45:10.602Z,57.86
2018-02-05T11:47:36.920Z,57.35
2018-02-05T11:50:03.982Z,58.49
2018-02-05T11:52:30.984Z,59.10
2018-02-05T11:54:57.308Z,59.62
2018-02-05T11:57:24.506Z,59.22
2018-02-05T11:59:51.555Z,58.99
2018-02-05T12:02:18.607Z,59.60
2018-02-05T12:04:45.657Z,59.97
2018-02-05T12:07:11.971Z,59.51
2018-02-05T12:09:39.027Z,58.57
2018-02-05T12:12:06.081Z,57.19
2018-02-05T12:14:33.155Z,54.75
2018-02-05T12:16:59.463Z,52.88
2018-02-05T12:19:26.478Z,53.10
2018-02-05T12:21:52.809Z,53.02
2018-02-05T12:24:19.076Z,51.84
2018-02-05T12:26:45.399Z,50.89
2018-02-05T12:29:11.782Z,51.46
2018-02-05T12:31:38.064Z,50.97
2018-02-05T12:34:04.362Z,51.21
2018-02-05T12:36:30.676Z,49.04
2018-02-05T12:38:57.000Z,45.78
2018-02-05T12:41:24.152Z,45.77
2018-02-05T12:43:50.453Z,44.34
2018-02-05T12:46:16.783Z,44.16
2018-02-05T12:48:43.133Z,43.61
2018-02-05T12:51:09.419Z,44.15
2018-02-05T12:53:36.423Z,42.88
2018-02-05T12:56:02.713Z,43.51
2018-02-05T12:58:29.779Z,43.82
2018-02-05T13:01:02.166Z,45.23
2018-02-05T13:03:33.547Z,47.34
2018-02-05T13:06:00.097Z,49.34
2018-02-05T13:08:27.127Z,50.16
2018-02-05T13:10:53.374Z,50.01
2018-02-05T13:13:20.369Z,50.58
2018-02-05T13:15:46.660Z,51.05
2018-02-05T13:18:13.648Z,51.42
2018-02-05T13:20:39.976Z,50.39
2018-02-05T13:23:06.310Z,49.08
2018-02-05T13:25:32.546Z,44.00
2018-02-05T13:27:58.830Z,35.58
2018-02-05T13:30:25.867Z,30.69
2018-02-05T13:32:52.929Z,29.52
2018-02-05T13:35:19.969Z,28.87
2018-02-05T13:37:47.041Z,31.17
2018-02-05T13:40:13.349Z,31.36
2018-02-05T13:42:40.368Z,33.36
2018-02-05T13:45:06.694Z,36.68
2018-02-05T13:47:33.006Z,38.41
2018-02-05T13:49:59.309Z,39.23
2018-02-05T13:52:30.284Z,41.30
2018-02-05T13:55:09.523Z,42.20
2018-02-05T13:57:35.928Z,44.38
2018-02-05T14:00:02.260Z,46.64
2018-02-05T14:02:28.540Z,48.01
2018-02-05T14:04:55.343Z,49.27
2018-02-05T14:07:21.622Z,48.89
2018-02-05T14:09:48.005Z,49.44
2018-02-05T14:12:14.305Z,50.20
2018-02-05T14:14:40.661Z,50.85
2018-02-05T14:17:06.937Z,51.33
2018-02-05T14:19:33.233Z,51.02
2018-02-05T14:21:59.555Z,50.81
2018-02-05T14:24:26.069Z,50.75
2018-02-05T14:26:52.399Z,50.97
2018-02-05T14:29:18.689Z,49.14
2018-02-05T14:31:45.033Z,50.12
2018-02-05T14:34:11.409Z,48.44
2018-02-05T14:36:37.713Z,46.81
2018-02-05T14:39:04.730Z,45.80
2018-02-05T14:41:31.009Z,37.60
2018-02-05T14:43:57.290Z,31.36
2018-02-05T14:46:24.306Z,28.69
2018-02-05T14:48:50.586Z,30.85
2018-02-05T14:51:17.630Z,34.70
2018-02-05T14:53:44.853Z,37.73
2018-02-05T14:56:12.667Z,40.10
2018-02-05T14:58:39.703Z,41.83
2018-02-05T15:01:06.743Z,43.28
2018-02-05T15:03:32.993Z,44.00
2018-02-05T15:05:59.342Z,45.47
2018-02-05T15:08:25.622Z,46.61
2018-02-05T15:10:51.919Z,47.62
2018-02-05T15:13:18.251Z,48.89
2018-02-05T15:15:44.602Z,49.72
2018-02-05T15:18:10.917Z,50.20
2018-02-05T15:20:37.350Z,50.55
2018-02-05T15:23:03.645Z,49.53
2018-02-05T15:25:29.960Z,49.32
2018-02-05T15:27:57.030Z,49.35
2018-02-05T15:30:23.410Z,49.54
2018-02-05T15:32:49.731Z,50.17
2018-02-05T15:35:16.000Z,50.19
2018-02-05T15:37:43.030Z,50.62
2018-02-05T15:40:09.368Z,51.14
2018-02-05T15:42:35.658Z,51.97
2018-02-05T15:45:01.952Z,52.74
2018-02-05T15:47:28.301Z,52.72
2018-02-05T15:49:54.596Z,51.93
2018-02-05T15:52:21.600Z,52.58
2018-02-05T15:54:47.899Z,52.85
2018-02-05T15:57:14.253Z,52.53
2018-02-05T15:59:40.526Z,52.72
2018-02-05T16:02:06.867Z,53.16
2018-02-05T16:04:33.897Z,53.51
2018-02-05T16:07:00.259Z,53.21
2018-02-05T16:12:22.313Z,54.54
2018-02-05T16:14:49.402Z,55.22
2018-02-05T16:17:15.704Z,55.58
2018-02-05T16:19:42.059Z,55.87
2018-02-05T16:22:08.328Z,56.16
2018-02-05T16:24:34.661Z,57.13
2018-02-05T16:27:00.987Z,56.46
2018-02-05T16:29:27.226Z,56.82
2018-02-05T16:31:53.524Z,56.73
2018-02-05T16:34:19.771Z,55.86
2018-02-05T16:36:46.047Z,55.84
2018-02-05T16:39:12.532Z,55.45
2018-02-05T16:41:38.790Z,55.48
2018-02-05T16:44:05.796Z,55.00
2018-02-05T16:46:32.081Z,54.97
2018-02-05T16:48:59.396Z,55.43
2018-02-05T16:51:25.821Z,55.22
2018-02-05T16:53:52.157Z,54.59
2018-02-05T16:56:18.411Z,54.41
2018-02-05T16:58:44.717Z,54.12
2018-02-05T17:01:11.285Z,53.99
2018-02-05T17:03:38.357Z,53.85
2018-02-05T17:06:04.634Z,54.00
2018-02-05T17:08:30.946Z,54.48
2018-02-05T17:11:00.898Z,54.44
2018-02-05T17:13:27.176Z,54.97
2018-02-05T17:15:58.369Z,54.27
2018-02-05T17:18:24.619Z,54.09
2018-02-05T17:20:52.956Z,54.29
2018-02-05T17:23:19.226Z,53.61
2018-02-05T17:25:46.231Z,53.96
2018-02-05T17:28:12.562Z,53.85
2018-02-05T17:30:38.840Z,54.31
2018-02-05T17:33:05.856Z,54.30
2018-02-05T17:35:32.184Z,53.24
2018-02-05T17:37:58.510Z,53.71
2018-02-05T17:40:24.809Z,54.06
2018-02-05T17:42:51.239Z,54.55
2018-02-05T17:45:17.591Z,54.43
2018-02-05T17:47:43.913Z,54.15
2018-02-05T17:50:10.200Z,53.06
2018-02-05T17:52:37.313Z,52.71
2018-02-05T17:55:03.606Z,52.67
2018-02-05T17:57:29.883Z,53.10
2018-02-05T17:59:56.201Z,53.48
2018-02-05T18:02:22.505Z,53.35
2018-02-05T18:04:48.796Z,52.65
2018-02-05T18:07:15.814Z,52.50
2018-02-05T18:09:42.119Z,52.39
2018-02-05T18:12:08.508Z,52.22
2018-02-05T18:14:35.521Z,51.52
2018-02-05T18:17:01.838Z,50.82
2018-02-05T18:19:28.164Z,50.72
2018-02-05T18:21:54.422Z,50.99
2018-02-05T18:24:21.749Z,51.24
2018-02-05T18:26:48.090Z,50.90
2018-02-05T18:29:14.430Z,50.95
2018-02-05T18:31:40.780Z,51.11
2018-02-05T18:34:07.062Z,50.74
2018-02-05T18:36:33.337Z,51.19
2018-02-05T18:38:59.653Z,50.08
2018-02-05T18:41:26.007Z,50.82
2018-02-05T18:43:52.326Z,51.53
2018-02-05T18:46:18.624Z,51.60
2018-02-05T18:48:45.095Z,51.43
2018-02-05T18:51:11.519Z,52.01
2018-02-05T18:53:37.845Z,52.63
2018-02-05T18:56:04.203Z,53.32
2018-02-05T18:58:31.297Z,53.50
2018-02-05T19:00:57.591Z,54.11
2018-02-05T19:03:24.669Z,54.15
2018-02-05T19:05:50.993Z,54.48
2018-02-05T19:08:17.372Z,54.46
2018-02-05T19:10:43.654Z,54.57
2018-02-05T19:13:09.943Z,54.89
2018-02-05T19:15:36.237Z,54.37
2018-02-05T19:18:02.542Z,54.48
2018-02-05T19:20:28.804Z,54.91
2018-02-05T19:22:55.082Z,55.30
2018-02-05T19:25:22.152Z,55.49
2018-02-05T19:27:48.448Z,55.52
2018-02-05T19:30:14.803Z,55.12
2018-02-05T19:32:41.894Z,55.56
2018-02-05T19:35:08.203Z,55.82
2018-02-05T19:37:34.719Z,56.03
2018-02-05T19:40:01.777Z,56.78
2018-02-05T19:42:28.101Z,57.06
2018-02-05T19:44:55.150Z,56.96
2018-02-05T19:47:21.623Z,57.10
2018-02-05T19:49:47.957Z,57.30
2018-02-05T19:52:14.237Z,58.16
2018-02-05T19:54:41.327Z,58.32
2018-02-05T19:57:07.642Z,57.59
2018-02-05T19:59:33.938Z,57.65
2018-02-05T20:02:01.006Z,57.56
2018-02-05T20:04:29.004Z,57.51
2018-02-05T20:06:55.294Z,58.03
2018-02-05T20:09:22.306Z,58.53
2018-02-05T20:11:48.674Z,58.19
2018-02-05T20:14:15.748Z,58.73
2018-02-05T20:16:42.120Z,59.27
2018-02-05T20:19:08.509Z,59.42
2018-02-05T20:21:34.817Z,59.50
2018-02-05T20:24:01.880Z,59.63
2018-02-05T20:26:28.273Z,59.12
2018-02-05T20:28:54.637Z,59.69
2018-02-05T20:31:20.911Z,59.80
2018-02-05T20:33:47.225Z,60.16
2018-02-05T20:36:13.526Z,60.73
2018-02-05T20:38:40.686Z,61.07
2018-02-05T20:41:07.746Z,60.79
2018-02-05T20:43:34.046Z,61.34
2018-02-05T20:46:01.098Z,62.00
2018-02-05T20:48:28.122Z,62.03
2018-02-05T20:50:54.417Z,62.50
2018-02-05T20:53:20.762Z,62.51
2018-02-05T20:55:47.057Z,61.66
2018-02-05T20:58:13.410Z,61.71
2018-02-05T21:00:39.694Z,62.59
2018-02-05T21:03:06.738Z,63.33
2018-02-05T21:05:33.045Z,62.80
2018-02-05T21:07:59.351Z,62.89
2018-02-05T21:10:25.681Z,63.24
2018-02-05T21:12:51.986Z,63.36
2018-02-05T21:15:18.357Z,63.45
2018-02-05T21:17:44.661Z,63.56
2018-02-05T21:20:11.678Z,63.90
2018-02-05T21:22:38.839Z,63.47
2018-02-05T21:25:05.943Z,63.99
2018-02-05T21:27:32.217Z,64.02
2018-02-05T21:29:59.371Z,63.66
2018-02-05T21:32:26.422Z,64.25
2018-02-05T21:34:55.068Z,64.60
2018-02-05T21:37:21.364Z,63.35
2018-02-05T21:39:47.674Z,63.38
2018-02-05T21:42:14.015Z,62.96
2018-02-05T21:44:40.306Z,63.17
2018-02-05T21:47:07.134Z,62.71
2018-02-05T21:49:33.471Z,63.10
2018-02-05T21:51:59.787Z,62.73
2018-02-05T21:54:26.160Z,62.78
2018-02-05T21:56:53.193Z,62.53
2018-02-05T21:59:19.510Z,62.46
2018-02-05T22:01:45.820Z,62.88
2018-02-05T22:04:12.214Z,63.05
2018-02-05T22:09:36.328Z,63.46
2018-02-05T22:12:31.879Z,63.99
2018-02-05T22:14:58.977Z,64.20
2018-02-05T22:17:26.009Z,63.99
2018-02-05T22:19:52.999Z,63.90
2018-02-05T22:22:21.521Z,64.07
2018-02-05T22:24:47.860Z,64.30
2018-02-05T22:27:14.138Z,64.44
2018-02-05T22:29:40.478Z,64.79
2018-02-05T22:32:30.755Z,64.79
2018-02-05T22:34:57.055Z,64.93
2018-02-05T22:37:24.056Z,64.96
2018-02-05T22:39:50.353Z,64.97
2018-02-05T22:42:16.661Z,65.42
2018-02-05T22:47:40.907Z,65.68
2018-02-05T22:50:07.220Z,65.43
2018-02-05T22:52:33.561Z,65.42
2018-02-05T22:54:59.917Z,65.75
2018-02-05T22:57:26.205Z,66.05
2018-02-05T22:59:53.250Z,65.90
2018-02-05T23:02:19.697Z,65.48
2018-02-05T23:04:46.007Z,65.37
2018-02-05T23:07:12.264Z,66.34
2018-02-05T23:09:38.516Z,66.42
2018-02-05T23:12:04.799Z,66.60
2018-02-05T23:14:31.854Z,67.15
2018-02-05T23:16:58.937Z,66.91
2018-02-05T23:19:25.207Z,66.74
2018-02-05T23:21:51.522Z,66.40
2018-02-05T23:24:17.819Z,66.22
2018-02-05T23:26:44.142Z,66.50
2018-02-05T23:29:10.454Z,66.89
2018-02-05T23:31:37.520Z,66.94
2018-02-05T23:34:03.816Z,67.10
2018-02-05T23:36:30.070Z,66.98
2018-02-05T23:38:56.384Z,66.70
2018-02-05T23:41:22.751Z,66.62
2018-02-05T23:43:49.141Z,66.95
2018-02-05T23:46:15.461Z,67.26
2018-02-05T23:48:41.758Z,67.43
2018-02-05T23:51:08.053Z,67.69
2018-02-05T23:53:34.415Z,67.76
2018-02-05T23:56:00.705Z,67.93
2018-02-05T23:58:27.757Z,68.04
